Time;durP1;ratioP1;P1;durP2;ratioP2;P2;SDS_P1;SDS_P2;PMS_P1;PMS_P2;Temp;Humidity;BMP_temperature;BMP_pressure;BME280_temperature;BME280_humidity;BME280_pressure;Samples;Min_cycle;Max_cycle;Signal;HPM_P1;HPM_P2
2023/08/27 00:00:49;;;;;;;0.10;0.10;;;;;;;;;;6251687;28;20028;-93
2023/08/27 00:03:49;;;;;;;0.10;0.10;;;;;;;;;;6251494;28;20475;-93
2023/08/27 00:06:49;;;;;;;0.00;0.00;;;;;;;;;;6270308;28;20028;-88
2023/08/27 00:09:50;;;;;;;0.00;0.00;;;;;;;;;;6245107;28;20025;-88
2023/08/27 00:12:50;;;;;;;0.00;0.00;;;;;;;;;;6245983;28;20094;-90
2023/08/27 00:15:50;;;;;;;0.00;0.00;;;;;;;;;;6262928;28;20044;-89
2023/08/27 00:18:50;;;;;;;0.10;0.10;;;;;;;;;;6268881;28;20040;-89
2023/08/27 00:21:51;;;;;;;0.00;0.00;;;;;;;;;;6250450;28;20052;-89
2023/08/27 00:24:52;;;;;;;0.10;0.10;;;;;;;;;;6250219;28;20483;-89
2023/08/27 00:27:52;;;;;;;0.10;0.10;;;;;;;;;;6249561;28;20005;-89
2023/08/27 00:30:58;;;;;;;0.00;0.00;;;;;;;;;;6249399;28;20009;-89
2023/08/27 00:33:59;;;;;;;0.10;0.10;;;;;;;;;;6268094;28;20028;-89
2023/08/27 00:37:00;;;;;;;0.00;0.00;;;;;;;;;;6250360;28;20450;-89
2023/08/27 00:40:00;;;;;;;0.00;0.00;;;;;;;;;;6249502;28;20532;-90
2023/08/27 00:43:02;;;;;;;0.00;0.00;;;;;;;;;;6249767;28;20028;-89
2023/08/27 00:46:02;;;;;;;0.10;0.10;;;;;;;;;;6267832;28;20021;-89
2023/08/27 00:49:03;;;;;;;0.00;0.00;;;;;;;;;;6249642;28;20379;-89
2023/08/27 00:52:04;;;;;;;0.00;0.00;;;;;;;;;;6268279;28;20998;-89
2023/08/27 00:55:05;;;;;;;0.00;0.00;;;;;;;;;;6249724;28;20067;-88
2023/08/27 00:58:05;;;;;;;0.10;0.10;;;;;;;;;;6263453;28;20021;-88
2023/08/27 01:01:05;;;;;;;0.00;0.00;;;;;;;;;;6272781;28;20032;-88
2023/08/27 01:04:05;;;;;;;0.00;0.00;;;;;;;;;;6267001;28;20020;-87
2023/08/27 01:07:15;;;;;;;0.00;0.00;;;;;;;;;;6248539;28;20071;-88
2023/08/27 01:10:27;;;;;;;0.00;0.00;;;;;;;;;;6261208;28;20542;-88
2023/08/27 01:13:44;;;;;;;0.00;0.00;;;;;;;;;;6266296;28;20108;-87
2023/08/27 01:16:46;;;;;;;0.00;0.00;;;;;;;;;;6264775;28;20369;-91
2023/08/27 01:19:48;;;;;;;0.00;0.00;;;;;;;;;;6261385;28;20133;-91
2023/08/27 01:22:48;;;;;;;0.10;0.10;;;;;;;;;;6267245;28;20060;-90
2023/08/27 01:25:52;;;;;;;0.00;0.00;;;;;;;;;;6267183;28;20039;-91
2023/08/27 01:28:58;;;;;;;0.10;0.10;;;;;;;;;;6267035;28;20096;-90
2023/08/27 01:32:04;;;;;;;0.00;0.00;;;;;;;;;;6265762;28;20017;-91
2023/08/27 01:35:06;;;;;;;0.10;0.10;;;;;;;;;;6244920;28;20125;-91
2023/08/27 01:38:06;;;;;;;;;;;;;;;;;;6260365;28;20017;-91
2023/08/27 01:41:06;;;;;;;0.00;0.00;;;;;;;;;;6260872;28;20488;-91
2023/08/27 01:44:06;;;;;;;0.10;0.10;;;;;;;;;;6264976;28;20104;-91
2023/08/27 01:47:07;;;;;;;0.10;0.10;;;;;;;;;;6248556;28;20020;-92
2023/08/27 01:50:07;;;;;;;0.10;0.10;;;;;;;;;;6263226;28;20010;-92
2023/08/27 01:53:07;;;;;;;0.10;0.10;;;;;;;;;;6266522;28;20023;-91
2023/08/27 01:56:08;;;;;;;0.10;0.10;;;;;;;;;;6266888;28;20017;-91
2023/08/27 01:59:08;;;;;;;0.10;0.10;;;;;;;;;;6264408;28;20040;-91
2023/08/27 02:02:08;;;;;;;0.10;0.10;;;;;;;;;;6267369;28;20356;-92
2023/08/27 02:05:08;;;;;;;0.00;0.00;;;;;;;;;;6267194;28;20581;-91
2023/08/27 02:08:09;;;;;;;0.10;0.10;;;;;;;;;;6248773;28;20013;-92
2023/08/27 02:11:09;;;;;;;0.00;0.00;;;;;;;;;;6266885;28;20465;-91
2023/08/27 02:14:09;;;;;;;0.10;0.10;;;;;;;;;;6266718;28;20017;-91
2023/08/27 02:17:09;;;;;;;0.00;0.00;;;;;;;;;;6263296;28;20120;-91
2023/08/27 02:20:10;;;;;;;0.00;0.00;;;;;;;;;;6266703;28;20036;-91
2023/08/27 02:23:10;;;;;;;0.00;0.00;;;;;;;;;;6249107;28;20049;-91
2023/08/27 02:26:22;;;;;;;0.00;0.00;;;;;;;;;;6266652;28;20013;-91
2023/08/27 02:29:23;;;;;;;0.00;0.00;;;;;;;;;;6246942;28;20009;-86
2023/08/27 02:32:26;;;;;;;0.00;0.00;;;;;;;;;;6265914;28;20093;-86
2023/08/27 02:35:26;;;;;;;0.00;0.00;;;;;;;;;;6244903;28;20059;-86
2023/08/27 02:38:26;;;;;;;0.00;0.00;;;;;;;;;;6255872;28;20521;-86
2023/08/27 02:41:26;;;;;;;0.00;0.00;;;;;;;;;;6264988;28;20558;-87
2023/08/27 02:44:27;;;;;;;0.00;0.00;;;;;;;;;;6248371;28;20016;-86
2023/08/27 02:47:27;;;;;;;0.00;0.00;;;;;;;;;;6263114;28;20309;-87
2023/08/27 02:50:27;;;;;;;0.00;0.00;;;;;;;;;;6265173;28;20020;-87
2023/08/27 02:53:27;;;;;;;0.00;0.00;;;;;;;;;;6260157;28;20031;-87
2023/08/27 02:56:27;;;;;;;0.00;0.00;;;;;;;;;;6266282;28;20024;-86
2023/08/27 02:59:28;;;;;;;0.00;0.00;;;;;;;;;;6247891;28;20021;-86
2023/08/27 03:02:28;;;;;;;0.00;0.00;;;;;;;;;;6261614;28;20036;-86
2023/08/27 03:05:28;;;;;;;0.00;0.00;;;;;;;;;;6246675;28;20375;-87
2023/08/27 03:08:28;;;;;;;0.10;0.10;;;;;;;;;;6252159;28;20024;-86
2023/08/27 03:11:29;;;;;;;0.10;0.10;;;;;;;;;;6252075;28;20041;-87
2023/08/27 03:14:29;;;;;;;0.00;0.00;;;;;;;;;;6252029;28;20021;-87
2023/08/27 03:17:29;;;;;;;0.00;0.00;;;;;;;;;;6273486;28;20032;-86
2023/08/27 03:20:29;;;;;;;0.00;0.00;;;;;;;;;;6270340;28;20277;-86
2023/08/27 03:23:34;;;;;;;0.00;0.00;;;;;;;;;;6265957;28;20028;-86
2023/08/27 03:26:34;;;;;;;0.00;0.00;;;;;;;;;;6251646;28;20052;-86
2023/08/27 03:29:34;;;;;;;0.00;0.00;;;;;;;;;;6269572;28;20020;-86
2023/08/27 03:32:35;;;;;;;0.00;0.00;;;;;;;;;;6270492;28;20028;-86
2023/08/27 03:35:35;;;;;;;0.00;0.00;;;;;;;;;;6269650;28;20123;-87
2023/08/27 03:38:36;;;;;;;0.00;0.00;;;;;;;;;;6262743;28;20013;-86
2023/08/27 03:41:36;;;;;;;0.00;0.00;;;;;;;;;;6269358;28;20375;-86
2023/08/27 03:44:36;;;;;;;0.00;0.00;;;;;;;;;;6269805;28;20020;-87
2023/08/27 03:47:37;;;;;;;0.00;0.00;;;;;;;;;;6267087;28;20017;-87
2023/08/27 03:50:37;;;;;;;0.00;0.00;;;;;;;;;;6249143;28;20060;-87
2023/08/27 03:53:38;;;;;;;0.10;0.10;;;;;;;;;;6268562;28;20028;-86
2023/08/27 03:56:38;;;;;;;0.10;0.10;;;;;;;;;;6250456;28;20024;-87
2023/08/27 03:59:38;;;;;;;0.00;0.00;;;;;;;;;;6269310;28;20020;-88
2023/08/27 04:02:38;;;;;;;0.10;0.10;;;;;;;;;;6250993;28;20060;-88
2023/08/27 04:05:40;;;;;;;0.10;0.10;;;;;;;;;;6269494;28;20136;-87
2023/08/27 04:08:40;;;;;;;0.00;0.00;;;;;;;;;;6269597;28;20532;-88
2023/08/27 04:11:41;;;;;;;0.10;0.10;;;;;;;;;;6251068;28;20048;-87
2023/08/27 04:14:41;;;;;;;0.10;0.10;;;;;;;;;;6251498;28;20609;-88
2023/08/27 04:17:41;;;;;;;0.10;0.10;;;;;;;;;;6268799;28;20048;-87
2023/08/27 04:20:41;;;;;;;0.00;0.00;;;;;;;;;;6252023;28;20046;-87
2023/08/27 04:23:41;;;;;;;0.00;0.00;;;;;;;;;;6269563;28;20036;-87
2023/08/27 04:26:42;;;;;;;0.00;0.00;;;;;;;;;;6265941;28;20017;-87
2023/08/27 04:29:42;;;;;;;0.07;0.07;;;;;;;;;;6251908;28;20013;-88
2023/08/27 04:32:43;;;;;;;0.10;0.10;;;;;;;;;;6250473;28;20681;-88
2023/08/27 04:35:47;;;;;;;0.10;0.10;;;;;;;;;;6269292;28;20055;-87
2023/08/27 04:38:48;;;;;;;0.10;0.10;;;;;;;;;;6250050;28;20021;-87
2023/08/27 04:41:48;;;;;;;0.00;0.00;;;;;;;;;;6248334;28;20647;-87
2023/08/27 04:44:49;;;;;;;0.10;0.10;;;;;;;;;;6253329;28;20044;-87
2023/08/27 04:47:49;;;;;;;0.00;0.00;;;;;;;;;;6250298;28;20380;-93
2023/08/27 04:50:49;;;;;;;0.00;0.00;;;;;;;;;;6268350;28;20020;-92
2023/08/27 04:53:49;;;;;;;0.00;0.00;;;;;;;;;;6261580;28;20013;-92
2023/08/27 04:56:49;;;;;;;0.00;0.00;;;;;;;;;;6249669;28;20107;-92
2023/08/27 04:59:56;;;;;;;0.00;0.00;;;;;;;;;;6250241;28;20136;-93
2023/08/27 05:02:56;;;;;;;0.00;0.00;;;;;;;;;;6264749;28;20017;-92
2023/08/27 05:05:56;;;;;;;0.00;0.00;;;;;;;;;;6249611;28;20040;-92
2023/08/27 05:08:58;;;;;;;0.10;0.10;;;;;;;;;;6260618;28;20029;-87
2023/08/27 05:11:58;;;;;;;0.00;0.00;;;;;;;;;;6230191;28;20459;-86
2023/08/27 05:14:58;;;;;;;0.00;0.00;;;;;;;;;;6219198;28;20145;-87
2023/08/27 05:17:58;;;;;;;0.00;0.00;;;;;;;;;;6236852;28;20105;-86
2023/08/27 05:20:59;;;;;;;0.00;0.00;;;;;;;;;;6227996;28;20025;-87
2023/08/27 05:23:59;;;;;;;0.00;0.00;;;;;;;;;;6238467;28;20025;-86
2023/08/27 05:26:59;;;;;;;0.00;0.00;;;;;;;;;;6217512;28;20121;-87
2023/08/27 05:29:59;;;;;;;0.00;0.00;;;;;;;;;;6222644;28;20109;-86
2023/08/27 05:33:00;;;;;;;0.00;0.00;;;;;;;;;;6233375;28;20112;-86
2023/08/27 05:36:00;;;;;;;0.00;0.00;;;;;;;;;;6227837;28;20026;-86
2023/08/27 05:39:00;;;;;;;0.00;0.00;;;;;;;;;;6230594;28;20062;-86
2023/08/27 05:42:01;;;;;;;0.00;0.00;;;;;;;;;;6225669;28;20049;-87
2023/08/27 05:45:01;;;;;;;0.00;0.00;;;;;;;;;;6224369;28;20480;-85
2023/08/27 05:48:01;;;;;;;0.00;0.00;;;;;;;;;;6228688;28;20022;-86
2023/08/27 05:51:03;;;;;;;0.00;0.00;;;;;;;;;;6222088;28;20100;-87
2023/08/27 05:54:03;;;;;;;0.00;0.00;;;;;;;;;;6224331;28;20476;-85
2023/08/27 05:57:04;;;;;;;0.00;0.00;;;;;;;;;;6230182;28;20029;-87
2023/08/27 06:00:05;;;;;;;0.00;0.00;;;;;;;;;;6226719;28;20080;-86
2023/08/27 06:03:05;;;;;;;0.00;0.00;;;;;;;;;;6208795;28;20034;-87
2023/08/27 06:06:05;;;;;;;0.00;0.00;;;;;;;;;;6219730;28;20029;-86
2023/08/27 06:09:05;;;;;;;0.00;0.00;;;;;;;;;;6231955;28;20038;-86
2023/08/27 06:12:06;;;;;;;0.00;0.00;;;;;;;;;;6238631;28;20041;-86
2023/08/27 06:15:07;;;;;;;0.00;0.00;;;;;;;;;;6225391;28;20416;-86
2023/08/27 06:18:08;;;;;;;0.00;0.00;;;;;;;;;;6201721;28;20280;-87
2023/08/27 06:21:08;;;;;;;0.00;0.00;;;;;;;;;;6219921;28;20117;-85
2023/08/27 06:24:08;;;;;;;0.00;0.00;;;;;;;;;;6238417;28;20033;-85
2023/08/27 06:27:09;;;;;;;0.00;0.00;;;;;;;;;;6221460;28;20037;-86
2023/08/27 06:30:09;;;;;;;0.00;0.00;;;;;;;;;;6236734;28;20099;-87
2023/08/27 06:33:10;;;;;;;0.00;0.00;;;;;;;;;;6238922;28;20029;-85
2023/08/27 06:36:10;;;;;;;0.00;0.00;;;;;;;;;;6224584;28;20022;-86
2023/08/27 06:39:11;;;;;;;0.00;0.00;;;;;;;;;;6222669;28;20025;-86
2023/08/27 06:42:12;;;;;;;0.00;0.00;;;;;;;;;;6228762;28;20488;-85
2023/08/27 06:45:12;;;;;;;0.00;0.00;;;;;;;;;;6249597;28;20035;-85
2023/08/27 06:48:13;;;;;;;0.00;0.00;;;;;;;;;;6228365;28;20017;-85
2023/08/27 06:51:13;;;;;;;0.00;0.00;;;;;;;;;;6242060;28;20021;-86
2023/08/27 06:54:13;;;;;;;0.00;0.00;;;;;;;;;;6230970;28;20048;-85
2023/08/27 06:57:14;;;;;;;0.00;0.00;;;;;;;;;;6246025;28;20032;-86
2023/08/27 07:00:14;;;;;;;0.00;0.00;;;;;;;;;;6244401;28;20116;-85
2023/08/27 07:03:14;;;;;;;0.00;0.00;;;;;;;;;;6227714;28;20025;-86
2023/08/27 07:06:14;;;;;;;0.00;0.00;;;;;;;;;;6230771;28;20018;-85
2023/08/27 07:09:15;;;;;;;0.00;0.00;;;;;;;;;;6238701;28;20028;-86
2023/08/27 07:12:15;;;;;;;0.00;0.00;;;;;;;;;;6239325;28;20467;-85
2023/08/27 07:15:15;;;;;;;0.00;0.00;;;;;;;;;;6269063;28;20029;-86
2023/08/27 07:18:16;;;;;;;0.00;0.00;;;;;;;;;;6268629;28;20059;-86
2023/08/27 07:21:16;;;;;;;0.00;0.00;;;;;;;;;;6271064;28;20017;-86
2023/08/27 07:24:16;;;;;;;0.00;0.00;;;;;;;;;;6256085;28;20056;-86
2023/08/27 07:27:17;;;;;;;0.00;0.00;;;;;;;;;;6257265;28;20061;-86
2023/08/27 07:30:17;;;;;;;0.00;0.00;;;;;;;;;;6251898;28;20047;-86
2023/08/27 07:33:17;;;;;;;0.00;0.00;;;;;;;;;;6251394;28;20494;-86
2023/08/27 07:36:17;;;;;;;0.00;0.00;;;;;;;;;;6248745;28;20033;-86
2023/08/27 07:39:18;;;;;;;0.00;0.00;;;;;;;;;;6254795;28;20455;-85
2023/08/27 07:42:21;;;;;;;0.00;0.00;;;;;;;;;;6255005;28;20054;-85
2023/08/27 07:45:21;;;;;;;0.00;0.00;;;;;;;;;;6248360;28;20159;-85
2023/08/27 07:48:22;;;;;;;0.00;0.00;;;;;;;;;;6269789;28;20029;-86
2023/08/27 07:51:22;;;;;;;0.00;0.00;;;;;;;;;;6249249;28;20099;-85
2023/08/27 07:54:22;;;;;;;0.00;0.00;;;;;;;;;;6266946;28;20025;-86
2023/08/27 07:57:22;;;;;;;0.00;0.00;;;;;;;;;;6266172;28;20056;-85
2023/08/27 08:00:23;;;;;;;0.00;0.00;;;;;;;;;;6243961;28;20061;-86
2023/08/27 08:03:23;;;;;;;0.00;0.00;;;;;;;;;;6265890;28;20036;-86
2023/08/27 08:06:23;;;;;;;0.00;0.00;;;;;;;;;;6263105;28;20048;-86
2023/08/27 08:09:23;;;;;;;0.00;0.00;;;;;;;;;;6266898;28;20017;-86
2023/08/27 08:12:24;;;;;;;0.00;0.00;;;;;;;;;;6251398;28;20507;-86
2023/08/27 08:15:25;;;;;;;0.00;0.00;;;;;;;;;;6250169;28;20163;-86
2023/08/27 08:18:25;;;;;;;0.00;0.00;;;;;;;;;;6267473;28;20029;-86
2023/08/27 08:21:25;;;;;;;0.00;0.00;;;;;;;;;;6267411;28;20033;-86
2023/08/27 08:24:27;;;;;;;0.00;0.00;;;;;;;;;;6250724;28;20044;-86
2023/08/27 08:27:27;;;;;;;0.00;0.00;;;;;;;;;;6268713;28;20025;-85
2023/08/27 08:30:27;;;;;;;0.00;0.00;;;;;;;;;;6243979;28;20113;-85
2023/08/27 08:33:27;;;;;;;0.00;0.00;;;;;;;;;;6265586;28;20025;-86
2023/08/27 08:36:28;;;;;;;0.00;0.00;;;;;;;;;;6268555;28;20033;-85
2023/08/27 08:39:28;;;;;;;0.00;0.00;;;;;;;;;;6250241;28;20025;-85
2023/08/27 08:42:32;;;;;;;0.00;0.00;;;;;;;;;;6268617;28;20025;-87
2023/08/27 08:45:40;;;;;;;0.00;0.00;;;;;;;;;;6250849;28;20025;-85
2023/08/27 08:48:44;;;;;;;0.00;0.00;;;;;;;;;;6269111;28;20388;-86
2023/08/27 08:51:44;;;;;;;0.00;0.00;;;;;;;;;;6267304;28;20013;-86
2023/08/27 08:54:46;;;;;;;0.00;0.00;;;;;;;;;;6250741;28;20028;-86
2023/08/27 08:57:51;;;;;;;0.00;0.00;;;;;;;;;;6249874;28;20049;-86
2023/08/27 09:00:51;;;;;;;0.00;0.00;;;;;;;;;;6250057;28;20490;-86
2023/08/27 09:03:52;;;;;;;0.00;0.00;;;;;;;;;;6245768;28;20029;-86
2023/08/27 09:06:53;;;;;;;0.00;0.00;;;;;;;;;;6267645;28;20017;-85
2023/08/27 09:09:56;;;;;;;0.00;0.00;;;;;;;;;;6268013;28;20021;-85
2023/08/27 09:12:57;;;;;;;0.00;0.00;;;;;;;;;;6249366;28;20070;-85
2023/08/27 09:15:57;;;;;;;0.00;0.00;;;;;;;;;;6267918;28;20025;-85
2023/08/27 09:19:00;;;;;;;0.00;0.00;;;;;;;;;;6267301;28;20566;-86
2023/08/27 09:22:00;;;;;;;0.00;0.00;;;;;;;;;;6249765;28;20483;-86
2023/08/27 09:25:02;;;;;;;0.00;0.00;;;;;;;;;;6248486;28;20086;-86
2023/08/27 09:28:02;;;;;;;;;;;;;;;;;;6265475;28;20024;-86
2023/08/27 09:31:04;;;;;;;0.00;0.00;;;;;;;;;;6249271;28;19982;-86
2023/08/27 09:34:05;;;;;;;0.00;0.00;;;;;;;;;;6267171;28;20025;-85
2023/08/27 09:37:06;;;;;;;0.00;0.00;;;;;;;;;;6267643;28;20482;-85
2023/08/27 09:40:07;;;;;;;0.00;0.00;;;;;;;;;;6243269;28;20017;-85
2023/08/27 09:43:08;;;;;;;0.00;0.00;;;;;;;;;;6251911;28;20106;-85
2023/08/27 09:46:10;;;;;;;0.00;0.00;;;;;;;;;;6271196;28;20021;-85
2023/08/27 09:49:10;;;;;;;0.00;0.00;;;;;;;;;;6262309;28;20656;-85
2023/08/27 09:52:10;;;;;;;0.00;0.00;;;;;;;;;;6247424;28;20017;-86
2023/08/27 09:55:14;;;;;;;0.00;0.00;;;;;;;;;;6267048;28;20525;-86
2023/08/27 09:58:14;;;;;;;0.00;0.00;;;;;;;;;;6266786;28;20487;-86
2023/08/27 10:01:14;;;;;;;0.00;0.00;;;;;;;;;;6266758;28;20029;-85
2023/08/27 10:04:15;;;;;;;0.00;0.00;;;;;;;;;;6266662;28;20143;-86
2023/08/27 10:07:15;;;;;;;0.00;0.00;;;;;;;;;;6266349;28;20059;-86
2023/08/27 10:10:17;;;;;;;0.00;0.00;;;;;;;;;;6254783;28;20037;-86
2023/08/27 10:13:19;;;;;;;0.00;0.00;;;;;;;;;;6264405;28;20492;-86
2023/08/27 10:16:19;;;;;;;0.00;0.00;;;;;;;;;;6252049;28;20028;-85
2023/08/27 10:19:19;;;;;;;0.00;0.00;;;;;;;;;;6247444;28;20036;-86
2023/08/27 10:22:22;;;;;;;0.00;0.00;;;;;;;;;;6271561;28;20025;-86
2023/08/27 10:25:23;;;;;;;0.00;0.00;;;;;;;;;;6271658;28;20283;-86
2023/08/27 10:28:23;;;;;;;;;;;;;;;;;;6254143;28;20017;-85
2023/08/27 10:31:23;;;;;;;0.00;0.00;;;;;;;;;;6271347;28;19904;-86
2023/08/27 10:34:24;;;;;;;0.00;0.00;;;;;;;;;;6253756;28;20028;-85
2023/08/27 10:37:27;;;;;;;0.00;0.00;;;;;;;;;;6271706;28;20025;-86
2023/08/27 10:40:27;;;;;;;0.00;0.00;;;;;;;;;;6271494;28;20025;-85
2023/08/27 10:43:32;;;;;;;0.00;0.00;;;;;;;;;;6253641;28;20491;-86
2023/08/27 10:46:32;;;;;;;0.00;0.00;;;;;;;;;;6253633;28;20263;-86
2023/08/27 10:49:39;;;;;;;0.00;0.00;;;;;;;;;;6253468;28;20032;-85
2023/08/27 10:52:50;;;;;;;0.00;0.00;;;;;;;;;;6250821;28;20260;-86
2023/08/27 10:55:51;;;;;;;0.00;0.00;;;;;;;;;;6271691;28;20048;-86
2023/08/27 10:58:52;;;;;;;0.00;0.00;;;;;;;;;;6252959;28;20127;-85
2023/08/27 11:02:08;;;;;;;0.00;0.00;;;;;;;;;;6271391;28;20363;-86
2023/08/27 11:05:08;;;;;;;0.00;0.00;;;;;;;;;;6248189;28;20024;-86
2023/08/27 11:08:08;;;;;;;;;;;;;;;;;;6271231;28;20041;-85
2023/08/27 11:11:12;;;;;;;0.00;0.00;;;;;;;;;;6271039;28;19912;-86
2023/08/27 11:14:14;;;;;;;0.00;0.00;;;;;;;;;;6270715;28;20025;-86
2023/08/27 11:17:21;;;;;;;0.00;0.00;;;;;;;;;;6270356;28;20017;-86
2023/08/27 11:20:23;;;;;;;0.00;0.00;;;;;;;;;;6241366;28;20017;-85
2023/08/27 11:23:23;;;;;;;0.00;0.00;;;;;;;;;;6252059;28;20025;-86
2023/08/27 11:26:23;;;;;;;;;;;;;;;;;;6274713;28;20486;-86
2023/08/27 11:29:23;;;;;;;0.00;0.00;;;;;;;;;;6270164;28;19909;-86
2023/08/27 11:32:23;;;;;;;;;;;;;;;;;;6252660;28;20035;-86
2023/08/27 11:35:27;;;;;;;0.00;0.00;;;;;;;;;;6252300;28;19915;-85
2023/08/27 11:38:27;;;;;;;0.00;0.00;;;;;;;;;;6250579;28;20016;-85
2023/08/27 11:41:35;;;;;;;0.00;0.00;;;;;;;;;;6269762;28;20048;-86
2023/08/27 11:44:44;;;;;;;0.00;0.00;;;;;;;;;;6251822;28;20040;-86
2023/08/27 11:47:44;;;;;;;0.00;0.00;;;;;;;;;;6269878;28;20049;-86
2023/08/27 11:50:44;;;;;;;;;;;;;;;;;;6252250;28;20509;-85
2023/08/27 11:53:44;;;;;;;0.00;0.00;;;;;;;;;;6253805;28;19913;-86
2023/08/27 11:56:45;;;;;;;;;;;;;;;;;;6270648;28;20059;-86
2023/08/27 11:59:46;;;;;;;0.00;0.00;;;;;;;;;;6269720;28;20676;-86
2023/08/27 12:02:47;;;;;;;0.00;0.00;;;;;;;;;;6269047;28;20036;-86
2023/08/27 12:05:47;;;;;;;;;;;;;;;;;;6269443;28;20025;-86
2023/08/27 12:08:48;;;;;;;0.00;0.00;;;;;;;;;;6251504;28;19909;-86
2023/08/27 12:11:49;;;;;;;0.00;0.00;;;;;;;;;;6251017;28;20048;-86
2023/08/27 12:14:49;;;;;;;;;;;;;;;;;;6269850;28;20119;-86
2023/08/27 12:17:49;;;;;;;0.00;0.00;;;;;;;;;;6268671;28;19944;-86
2023/08/27 12:20:49;;;;;;;0.00;0.00;;;;;;;;;;6269493;28;20021;-86
2023/08/27 12:23:51;;;;;;;0.00;0.00;;;;;;;;;;6262868;28;20797;-86
2023/08/27 12:26:52;;;;;;;0.00;0.00;;;;;;;;;;6268676;28;20431;-85
2023/08/27 12:29:55;;;;;;;0.00;0.00;;;;;;;;;;6250559;28;20009;-86
2023/08/27 12:32:55;;;;;;;0.00;0.00;;;;;;;;;;6249816;28;20024;-86
2023/08/27 12:35:55;;;;;;;0.00;0.00;;;;;;;;;;6265717;28;20048;-86
2023/08/27 12:38:55;;;;;;;0.00;0.00;;;;;;;;;;6267025;28;20035;-86
2023/08/27 12:41:56;;;;;;;0.00;0.00;;;;;;;;;;6267369;28;20386;-86
2023/08/27 12:44:56;;;;;;;0.00;0.00;;;;;;;;;;6268426;28;20021;-86
2023/08/27 12:48:01;;;;;;;0.00;0.00;;;;;;;;;;6269333;28;20465;-86
2023/08/27 12:51:01;;;;;;;0.00;0.00;;;;;;;;;;6263202;28;20437;-86
2023/08/27 12:54:02;;;;;;;0.00;0.00;;;;;;;;;;6267523;28;20021;-86
2023/08/27 12:57:02;;;;;;;;;;;;;;;;;;6263263;28;20075;-86
2023/08/27 13:00:03;;;;;;;0.00;0.00;;;;;;;;;;6250405;28;19908;-86
2023/08/27 13:03:04;;;;;;;0.00;0.00;;;;;;;;;;6268610;28;20025;-85
2023/08/27 13:06:04;;;;;;;0.00;0.00;;;;;;;;;;6267744;28;20013;-86
2023/08/27 13:09:06;;;;;;;0.00;0.00;;;;;;;;;;6268393;28;20047;-86
2023/08/27 13:12:07;;;;;;;0.00;0.00;;;;;;;;;;6238625;28;20103;-86
2023/08/27 13:15:07;;;;;;;;;;;;;;;;;;6246651;28;20156;-84
2023/08/27 13:18:07;;;;;;;0.00;0.00;;;;;;;;;;6235630;28;19909;-84
2023/08/27 13:21:08;;;;;;;;;;;;;;;;;;6220857;28;20017;-84
2023/08/27 13:24:08;;;;;;;0.00;0.00;;;;;;;;;;6234365;28;19988;-84
2023/08/27 13:27:08;;;;;;;;;;;;;;;;;;6230318;28;20476;-84
2023/08/27 13:30:08;;;;;;;0.00;0.00;;;;;;;;;;6232602;28;19999;-85
2023/08/27 13:33:09;;;;;;;0.00;0.00;;;;;;;;;;6237071;28;20022;-84
2023/08/27 13:36:09;;;;;;;0.00;0.00;;;;;;;;;;6240104;28;20260;-85
2023/08/27 13:39:09;;;;;;;;;;;;;;;;;;6234530;28;20010;-85
2023/08/27 13:42:09;;;;;;;0.00;0.00;;;;;;;;;;6238763;28;19906;-84
2023/08/27 13:45:10;;;;;;;0.00;0.00;;;;;;;;;;6225380;28;20025;-85
2023/08/27 13:48:10;;;;;;;0.00;0.00;;;;;;;;;;6239836;28;20224;-84
2023/08/27 13:51:10;;;;;;;0.00;0.00;;;;;;;;;;6227719;28;20447;-84
2023/08/27 13:54:10;;;;;;;0.00;0.00;;;;;;;;;;6237931;28;20025;-84
2023/08/27 13:57:11;;;;;;;0.00;0.00;;;;;;;;;;6235559;28;20021;-84
2023/08/27 14:00:12;;;;;;;0.00;0.00;;;;;;;;;;6242315;28;20744;-84
2023/08/27 14:03:12;;;;;;;0.00;0.00;;;;;;;;;;6212848;28;20029;-84
2023/08/27 14:06:13;;;;;;;0.00;0.00;;;;;;;;;;6232111;28;20096;-85
2023/08/27 14:09:13;;;;;;;0.00;0.00;;;;;;;;;;6232125;28;20109;-84
2023/08/27 14:12:13;;;;;;;0.00;0.00;;;;;;;;;;6247509;28;20041;-84
2023/08/27 14:15:13;;;;;;;0.00;0.00;;;;;;;;;;6242220;28;20066;-85
2023/08/27 14:18:14;;;;;;;0.00;0.00;;;;;;;;;;6248132;28;20052;-85
2023/08/27 14:21:16;;;;;;;0.00;0.00;;;;;;;;;;6242077;28;20100;-84
2023/08/27 14:24:16;;;;;;;0.00;0.00;;;;;;;;;;6241565;28;20021;-84
2023/08/27 14:27:16;;;;;;;0.00;0.00;;;;;;;;;;6235338;28;20028;-85
2023/08/27 14:30:16;;;;;;;0.00;0.00;;;;;;;;;;6236255;28;20009;-85
2023/08/27 14:33:17;;;;;;;0.00;0.00;;;;;;;;;;6233362;28;20071;-83
2023/08/27 14:36:17;;;;;;;0.00;0.00;;;;;;;;;;6241771;28;20746;-84
2023/08/27 14:39:17;;;;;;;0.00;0.00;;;;;;;;;;6245416;28;20026;-84
2023/08/27 14:42:17;;;;;;;0.00;0.00;;;;;;;;;;6246263;28;20514;-84
2023/08/27 14:45:18;;;;;;;0.00;0.00;;;;;;;;;;6242291;28;20361;-84
2023/08/27 14:48:18;;;;;;;0.00;0.00;;;;;;;;;;6245775;28;20434;-84
2023/08/27 14:51:18;;;;;;;0.00;0.00;;;;;;;;;;6265228;28;20085;-84
2023/08/27 14:54:19;;;;;;;0.00;0.00;;;;;;;;;;6227488;28;20099;-83
2023/08/27 14:57:19;;;;;;;0.00;0.00;;;;;;;;;;6236669;28;20514;-84
2023/08/27 15:00:19;;;;;;;0.00;0.00;;;;;;;;;;6249969;28;20100;-84
2023/08/27 15:03:19;;;;;;;0.00;0.00;;;;;;;;;;6248070;28;20442;-84
2023/08/27 15:06:19;;;;;;;0.00;0.00;;;;;;;;;;6249708;28;20041;-84
2023/08/27 15:09:20;;;;;;;0.00;0.00;;;;;;;;;;6250320;28;20009;-85
2023/08/27 15:12:21;;;;;;;0.00;0.00;;;;;;;;;;6233141;28;20041;-85
2023/08/27 15:15:21;;;;;;;;;;;;;;;;;;6251357;28;20833;-84
2023/08/27 15:18:21;;;;;;;0.00;0.00;;;;;;;;;;6228351;28;19932;-83
2023/08/27 15:21:22;;;;;;;0.00;0.00;;;;;;;;;;6245359;28;20048;-84
2023/08/27 15:24:22;;;;;;;0.00;0.00;;;;;;;;;;6246837;28;20017;-85
2023/08/27 15:27:23;;;;;;;0.00;0.00;;;;;;;;;;6253462;28;20017;-85
2023/08/27 15:30:23;;;;;;;0.00;0.00;;;;;;;;;;6230572;28;20006;-85
2023/08/27 15:33:23;;;;;;;0.00;0.00;;;;;;;;;;6236028;28;20014;-83
2023/08/27 15:36:23;;;;;;;0.00;0.00;;;;;;;;;;6235057;28;20009;-84
2023/08/27 15:39:24;;;;;;;0.00;0.00;;;;;;;;;;6243972;28;20654;-85
2023/08/27 15:42:27;;;;;;;0.00;0.00;;;;;;;;;;6240159;28;20029;-83
2023/08/27 15:45:28;;;;;;;0.00;0.00;;;;;;;;;;6252261;28;20021;-84
2023/08/27 15:48:28;;;;;;;0.00;0.00;;;;;;;;;;6234497;28;20048;-85
2023/08/27 15:51:29;;;;;;;0.00;0.00;;;;;;;;;;6222584;28;20027;-85
2023/08/27 15:54:29;;;;;;;0.00;0.00;;;;;;;;;;6242058;28;20028;-84
2023/08/27 15:57:29;;;;;;;0.00;0.00;;;;;;;;;;6242494;28;20029;-84
2023/08/27 16:00:29;;;;;;;0.00;0.00;;;;;;;;;;6241393;28;20023;-84
2023/08/27 16:03:30;;;;;;;0.00;0.00;;;;;;;;;;6224753;28;20037;-84
2023/08/27 16:06:30;;;;;;;0.00;0.00;;;;;;;;;;6239225;28;20018;-85
2023/08/27 16:09:30;;;;;;;0.00;0.00;;;;;;;;;;6238117;28;20033;-85
2023/08/27 16:12:31;;;;;;;0.00;0.00;;;;;;;;;;6253240;28;20535;-84
2023/08/27 16:15:31;;;;;;;0.00;0.00;;;;;;;;;;6244713;28;20483;-84
2023/08/27 16:18:31;;;;;;;0.00;0.00;;;;;;;;;;6250714;28;20290;-84
2023/08/27 16:21:34;;;;;;;0.00;0.00;;;;;;;;;;6253221;28;20025;-84
2023/08/27 16:24:34;;;;;;;0.00;0.00;;;;;;;;;;6259471;28;20391;-84
2023/08/27 16:27:34;;;;;;;0.00;0.00;;;;;;;;;;6239525;28;20021;-84
2023/08/27 16:30:34;;;;;;;0.00;0.00;;;;;;;;;;6263187;28;20436;-83
2023/08/27 16:33:35;;;;;;;0.00;0.00;;;;;;;;;;6249759;28;20029;-84
2023/08/27 16:36:35;;;;;;;0.00;0.00;;;;;;;;;;6249592;28;20021;-83
2023/08/27 16:39:35;;;;;;;0.00;0.00;;;;;;;;;;6251874;28;20066;-84
2023/08/27 16:42:36;;;;;;;0.00;0.00;;;;;;;;;;6238850;28;20022;-84
2023/08/27 16:45:36;;;;;;;0.00;0.00;;;;;;;;;;6230215;28;20028;-84
2023/08/27 16:48:36;;;;;;;0.00;0.00;;;;;;;;;;6257799;28;20426;-84
2023/08/27 16:51:37;;;;;;;0.00;0.00;;;;;;;;;;6247830;28;20020;-83
2023/08/27 16:54:37;;;;;;;0.00;0.00;;;;;;;;;;6244970;28;20020;-84
2023/08/27 16:57:37;;;;;;;0.00;0.00;;;;;;;;;;6234091;28;20029;-83
2023/08/27 17:00:38;;;;;;;0.00;0.00;;;;;;;;;;6247324;28;20539;-84
2023/08/27 17:03:38;;;;;;;0.00;0.00;;;;;;;;;;6247513;28;20039;-84
2023/08/27 17:06:39;;;;;;;0.00;0.00;;;;;;;;;;6243379;28;20017;-84
2023/08/27 17:09:39;;;;;;;0.00;0.00;;;;;;;;;;6249463;28;20731;-84
2023/08/27 17:12:39;;;;;;;0.00;0.00;;;;;;;;;;6253642;28;20037;-84
2023/08/27 17:15:41;;;;;;;0.00;0.00;;;;;;;;;;6243120;28;20436;-84
2023/08/27 17:18:43;;;;;;;0.00;0.00;;;;;;;;;;6246864;28;20025;-83
2023/08/27 17:21:43;;;;;;;;;;;;;;;;;;6254857;28;20029;-84
2023/08/27 17:24:43;;;;;;;0.00;0.00;;;;;;;;;;6244391;28;19970;-84
2023/08/27 17:27:43;;;;;;;0.00;0.00;;;;;;;;;;6250586;28;20067;-84
2023/08/27 17:30:43;;;;;;;0.00;0.00;;;;;;;;;;6224244;28;20547;-83
2023/08/27 17:33:44;;;;;;;0.00;0.00;;;;;;;;;;6231799;28;20041;-83
2023/08/27 17:36:44;;;;;;;0.00;0.00;;;;;;;;;;6233900;28;20025;-93
2023/08/27 17:39:45;;;;;;;0.00;0.00;;;;;;;;;;6245064;28;20026;-95
2023/08/27 17:42:45;;;;;;;;;;;;;;;;;;6251545;28;20032;-94
2023/08/27 17:45:45;;;;;;;0.00;0.00;;;;;;;;;;6225575;28;20295;-94
2023/08/27 17:48:46;;;;;;;0.00;0.00;;;;;;;;;;6246313;28;21697;-95
2023/08/27 17:51:46;;;;;;;0.00;0.00;;;;;;;;;;6241299;28;20051;-95
2023/08/27 17:54:46;;;;;;;0.00;0.00;;;;;;;;;;6246673;28;20061;-94
2023/08/27 17:57:46;;;;;;;0.00;0.00;;;;;;;;;;6232199;28;20116;-84
2023/08/27 18:00:47;;;;;;;0.00;0.00;;;;;;;;;;6243197;28;20021;-84
2023/08/27 18:03:47;;;;;;;0.00;0.00;;;;;;;;;;6224063;28;20068;-84
2023/08/27 18:06:48;;;;;;;0.00;0.00;;;;;;;;;;6253047;28;20021;-84
2023/08/27 18:09:48;;;;;;;0.00;0.00;;;;;;;;;;6231155;28;20609;-83